createdAt,value
2019-02-19T00:00:08.968Z,8.50
2019-02-19T00:02:38.318Z,8.50
2019-02-19T00:05:08.439Z,8.40
2019-02-19T00:07:37.775Z,8.40
2019-02-19T00:10:07.849Z,8.40
2019-02-19T00:12:37.180Z,8.50
2019-02-19T00:15:08.589Z,8.50
2019-02-19T00:17:38.014Z,8.40
2019-02-19T00:20:07.413Z,8.40
2019-02-19T00:22:36.803Z,8.50
2019-02-19T00:25:07.173Z,8.40
2019-02-19T00:27:36.504Z,8.40
2019-02-19T00:30:06.960Z,8.40
2019-02-19T00:32:36.290Z,8.40
2019-02-19T00:35:06.955Z,8.40
2019-02-19T00:37:36.293Z,8.40
2019-02-19T00:40:06.438Z,8.40
2019-02-19T00:42:35.771Z,8.40
2019-02-19T00:45:06.814Z,8.40
2019-02-19T00:47:36.147Z,8.40
2019-02-19T00:50:06.787Z,8.40
2019-02-19T00:52:36.124Z,8.40
2019-02-19T00:55:06.468Z,8.40
2019-02-19T00:57:35.804Z,8.40
2019-02-19T01:00:09.592Z,8.30
2019-02-19T01:02:38.957Z,8.30
2019-02-19T01:05:09.103Z,8.30
2019-02-19T01:07:38.439Z,8.30
2019-02-19T01:10:08.221Z,8.20
2019-02-19T01:12:37.846Z,8.20
2019-02-19T01:15:10.093Z,8.20
2019-02-19T01:17:39.437Z,8.20
2019-02-19T01:20:10.334Z,8.20
2019-02-19T01:22:39.659Z,8.20
2019-02-19T01:25:09.433Z,8.20
2019-02-19T01:27:38.780Z,8.20
2019-02-19T01:30:10.929Z,8.10
2019-02-19T01:32:40.270Z,8.10
2019-02-19T01:35:09.953Z,8.10
2019-02-19T01:37:39.580Z,8.10
2019-02-19T01:40:10.442Z,8.10
2019-02-19T01:42:40.045Z,8.10
2019-02-19T01:45:10.155Z,8.10
2019-02-19T01:47:39.509Z,8.10
2019-02-19T01:50:10.152Z,8.10
2019-02-19T01:52:39.508Z,8.10
2019-02-19T01:55:09.591Z,8.10
2019-02-19T01:57:38.923Z,8.10
2019-02-19T02:00:11.222Z,8.00
2019-02-19T02:02:40.552Z,8.00
2019-02-19T02:05:09.902Z,8.00
2019-02-19T02:07:39.235Z,8.00
2019-02-19T02:10:08.946Z,8.00
2019-02-19T02:12:38.288Z,8.00
2019-02-19T02:15:08.567Z,8.00
2019-02-19T02:17:37.905Z,8.00
2019-02-19T02:20:08.278Z,8.00
2019-02-19T02:22:40.400Z,8.00
2019-02-19T02:25:09.760Z,7.90
2019-02-19T02:27:39.099Z,8.00
2019-02-19T02:30:09.378Z,7.90
2019-02-19T02:32:38.715Z,7.90
2019-02-19T02:35:08.123Z,7.90
2019-02-19T02:37:37.476Z,7.90
2019-02-19T02:40:08.461Z,7.90
2019-02-19T02:42:37.798Z,7.90
2019-02-19T02:45:07.225Z,7.80
2019-02-19T02:47:36.563Z,7.80
2019-02-19T02:50:06.245Z,7.80
2019-02-19T02:52:35.602Z,7.80
2019-02-19T02:55:06.148Z,7.80
2019-02-19T02:57:35.488Z,7.80
2019-02-19T03:00:08.378Z,7.80
2019-02-19T03:02:37.722Z,7.70
2019-02-19T03:05:07.391Z,7.70
2019-02-19T03:07:41.298Z,7.70
2019-02-19T03:10:10.817Z,7.70
2019-02-19T03:12:40.188Z,7.70
2019-02-19T03:15:10.052Z,7.60
2019-02-19T03:17:39.430Z,7.60
2019-02-19T03:20:09.218Z,7.60
2019-02-19T03:22:38.557Z,7.60
2019-02-19T03:25:07.905Z,7.60
2019-02-19T03:27:37.240Z,7.60
2019-02-19T03:30:10.291Z,7.50
2019-02-19T03:32:39.830Z,7.50
2019-02-19T03:35:09.257Z,7.50
2019-02-19T03:37:38.578Z,7.40
2019-02-19T03:40:08.866Z,7.40
2019-02-19T03:42:38.559Z,7.40
2019-02-19T03:45:10.115Z,7.40
2019-02-19T03:47:39.459Z,7.30
2019-02-19T03:50:08.810Z,7.30
2019-02-19T03:52:38.153Z,7.30
2019-02-19T03:55:07.936Z,7.30
2019-02-19T03:57:37.338Z,7.30
2019-02-19T04:00:08.889Z,7.30
2019-02-19T04:02:38.229Z,7.30
2019-02-19T04:05:07.629Z,7.20
2019-02-19T04:07:36.968Z,7.20
2019-02-19T04:10:08.820Z,7.20
2019-02-19T04:12:38.175Z,7.20
2019-02-19T04:15:08.566Z,7.10
2019-02-19T04:17:37.899Z,7.10
2019-02-19T04:20:09.181Z,7.10
2019-02-19T04:22:38.529Z,7.00
2019-02-19T04:25:08.024Z,7.00
2019-02-19T04:27:37.362Z,7.00
2019-02-19T04:30:09.004Z,7.00
2019-02-19T04:32:38.352Z,6.90
2019-02-19T04:35:07.700Z,6.90
2019-02-19T04:37:37.027Z,6.90
2019-02-19T04:40:08.615Z,6.80
2019-02-19T04:42:38.030Z,6.80
2019-02-19T04:45:07.542Z,6.80
2019-02-19T04:47:36.873Z,6.80
2019-02-19T04:50:08.527Z,6.70
2019-02-19T04:52:37.869Z,6.70
2019-02-19T04:55:08.174Z,6.70
2019-02-19T04:57:37.535Z,6.60
2019-02-19T05:00:13.356Z,6.60
2019-02-19T05:02:42.693Z,6.60
2019-02-19T05:05:12.030Z,6.60
2019-02-19T05:07:41.374Z,6.50
2019-02-19T05:10:10.825Z,6.50
2019-02-19T05:12:40.167Z,6.50
2019-02-19T05:15:11.754Z,6.50
2019-02-19T05:17:41.085Z,6.50
2019-02-19T05:20:10.839Z,6.50
2019-02-19T05:22:40.270Z,6.40
2019-02-19T05:25:09.603Z,6.40
2019-02-19T05:27:38.939Z,6.40
2019-02-19T05:30:11.456Z,6.40
2019-02-19T05:32:40.795Z,6.40
2019-02-19T05:35:10.314Z,6.40
2019-02-19T05:37:39.646Z,6.30
2019-02-19T05:40:10.585Z,6.30
2019-02-19T05:42:39.926Z,6.30
2019-02-19T05:45:10.677Z,6.30
2019-02-19T05:47:40.017Z,6.20
2019-02-19T05:50:10.599Z,6.20
2019-02-19T05:52:39.935Z,6.20
2019-02-19T05:55:09.534Z,6.20
2019-02-19T05:57:38.873Z,6.20
2019-02-19T06:00:12.386Z,6.20
2019-02-19T06:02:41.715Z,6.20
2019-02-19T06:05:11.527Z,6.10
2019-02-19T06:07:40.887Z,6.10
2019-02-19T06:10:14.114Z,6.10
2019-02-19T06:12:43.449Z,6.10
2019-02-19T06:15:13.324Z,6.10
2019-02-19T06:17:42.671Z,6.10
2019-02-19T06:20:12.016Z,6.10
2019-02-19T06:22:41.366Z,6.10
2019-02-19T06:25:10.937Z,6.00
2019-02-19T06:27:40.236Z,6.00
2019-02-19T06:30:12.932Z,6.00
2019-02-19T06:32:42.338Z,6.00
2019-02-19T06:35:11.816Z,6.00
2019-02-19T06:37:41.148Z,6.00
2019-02-19T06:40:25.690Z,6.00
2019-02-19T06:42:55.308Z,6.00
2019-02-19T06:45:24.646Z,6.00
2019-02-19T06:47:53.982Z,6.00
2019-02-19T06:50:23.362Z,6.00
2019-02-19T06:52:52.704Z,6.10
2019-02-19T06:55:22.037Z,6.10
2019-02-19T06:57:51.379Z,6.10
2019-02-19T07:00:20.747Z,6.10
2019-02-19T07:02:54.778Z,6.10
2019-02-19T07:05:25.296Z,6.10
2019-02-19T07:07:54.708Z,6.10
2019-02-19T07:10:24.036Z,6.10
2019-02-19T07:12:53.369Z,6.10
2019-02-19T07:15:22.750Z,6.10
2019-02-19T07:17:52.087Z,6.10
2019-02-19T07:20:21.427Z,6.10
2019-02-19T07:22:50.764Z,6.10
2019-02-19T07:25:20.100Z,6.20
2019-02-19T07:27:49.439Z,6.20
2019-02-19T07:30:18.773Z,6.20
2019-02-19T07:32:48.109Z,6.20
2019-02-19T07:35:17.446Z,6.20
2019-02-19T07:37:46.781Z,6.30
2019-02-19T07:40:17.485Z,6.30
2019-02-19T07:42:46.843Z,6.30
2019-02-19T07:45:16.181Z,6.30
2019-02-19T07:47:45.951Z,6.40
2019-02-19T07:50:15.301Z,6.40
2019-02-19T07:52:44.640Z,6.40
2019-02-19T07:55:14.213Z,6.40
2019-02-19T07:57:43.561Z,6.50
2019-02-19T08:00:14.206Z,6.50
2019-02-19T08:02:43.553Z,6.60
2019-02-19T08:05:12.894Z,6.60
2019-02-19T08:07:42.262Z,6.60
2019-02-19T08:10:12.736Z,6.60
2019-02-19T08:12:42.079Z,6.70
2019-02-19T08:15:12.770Z,6.70
2019-02-19T08:17:42.227Z,6.80
2019-02-19T08:20:15.882Z,6.80
2019-02-19T08:22:42.644Z,6.80
2019-02-19T08:25:11.999Z,6.90
2019-02-19T08:27:41.427Z,6.90
2019-02-19T08:30:11.351Z,7.00
2019-02-19T08:32:40.850Z,7.00
2019-02-19T08:35:10.335Z,7.10
2019-02-19T08:37:39.647Z,7.10
2019-02-19T08:40:10.800Z,7.10
2019-02-19T08:42:40.142Z,7.10
2019-02-19T08:45:10.825Z,7.20
2019-02-19T08:47:42.714Z,7.20
2019-02-19T08:50:11.230Z,7.30
2019-02-19T08:52:40.573Z,7.40
2019-02-19T08:55:09.928Z,7.40
2019-02-19T08:57:39.275Z,7.40
2019-02-19T09:00:11.634Z,7.40
2019-02-19T09:02:41.014Z,7.50
2019-02-19T09:05:10.371Z,7.50
2019-02-19T09:07:39.711Z,7.60
2019-02-19T09:10:13.017Z,7.70
2019-02-19T09:12:42.361Z,7.80
2019-02-19T09:15:13.173Z,7.90
2019-02-19T09:17:51.289Z,8.00
2019-02-19T09:20:13.590Z,8.10
2019-02-19T09:22:42.927Z,8.30
2019-02-19T09:25:12.267Z,8.40
2019-02-19T09:27:43.309Z,8.40
2019-02-19T09:30:13.602Z,8.40
2019-02-19T09:32:42.946Z,8.40
2019-02-19T09:35:12.282Z,8.50
2019-02-19T09:37:41.621Z,8.40
2019-02-19T09:40:11.726Z,8.40
2019-02-19T09:42:41.352Z,8.50
2019-02-19T09:45:11.499Z,8.60
2019-02-19T09:47:40.836Z,8.70
2019-02-19T09:50:11.214Z,8.80
2019-02-19T09:52:40.566Z,8.90
2019-02-19T09:55:09.970Z,8.90
2019-02-19T09:57:39.325Z,9.10
2019-02-19T10:00:14.490Z,9.10
2019-02-19T10:02:44.166Z,9.20
2019-02-19T10:05:13.551Z,9.20
2019-02-19T10:07:42.861Z,9.20
2019-02-19T10:10:19.102Z,9.30
2019-02-19T10:12:48.437Z,9.30
2019-02-19T10:15:17.781Z,9.30
2019-02-19T10:17:47.120Z,9.30
2019-02-19T10:20:16.473Z,9.30
2019-02-19T10:22:46.278Z,9.30
2019-02-19T10:25:15.888Z,9.40
2019-02-19T10:27:45.221Z,9.40
2019-02-19T10:30:17.765Z,9.50
2019-02-19T10:32:47.110Z,9.60
2019-02-19T10:35:16.720Z,9.70
2019-02-19T10:37:46.071Z,9.80
2019-02-19T10:40:18.694Z,9.90
2019-02-19T10:42:48.030Z,9.90
2019-02-19T10:45:25.941Z,10.00
2019-02-19T10:47:55.280Z,10.00
2019-02-19T10:50:24.625Z,10.10
2019-02-19T10:52:53.967Z,10.20
2019-02-19T10:55:23.317Z,10.20
2019-02-19T10:57:52.667Z,10.20
2019-02-19T11:00:23.440Z,10.20
2019-02-19T11:02:52.788Z,10.20
2019-02-19T11:05:22.395Z,10.20
2019-02-19T11:07:51.736Z,10.20
2019-02-19T11:10:21.073Z,10.20
2019-02-19T11:12:50.416Z,10.30
2019-02-19T11:15:19.755Z,10.40
2019-02-19T11:17:49.099Z,10.50
2019-02-19T11:20:23.014Z,10.60
2019-02-19T11:22:52.354Z,10.60
2019-02-19T11:25:21.744Z,10.60
2019-02-19T11:27:51.039Z,10.70
2019-02-19T11:30:20.957Z,10.70
2019-02-19T11:32:50.303Z,10.60
2019-02-19T11:35:19.648Z,10.60
2019-02-19T11:37:48.989Z,10.70
2019-02-19T11:40:18.326Z,10.70
2019-02-19T11:42:47.668Z,10.70
2019-02-19T11:45:19.333Z,10.70
2019-02-19T11:47:48.674Z,10.70
2019-02-19T11:50:18.015Z,10.80
2019-02-19T11:52:47.355Z,10.80
2019-02-19T11:55:19.309Z,10.90
2019-02-19T11:57:48.717Z,10.80
2019-02-19T12:00:25.634Z,10.80
2019-02-19T12:02:54.970Z,10.70
2019-02-19T12:05:24.311Z,10.70
2019-02-19T12:07:53.654Z,10.80
2019-02-19T12:10:22.989Z,10.90
2019-02-19T12:12:52.345Z,10.80
2019-02-19T12:15:21.682Z,10.80
2019-02-19T12:17:51.031Z,10.90
2019-02-19T12:20:20.365Z,10.90
2019-02-19T12:22:49.705Z,10.80
2019-02-19T12:25:19.048Z,10.90
2019-02-19T12:27:48.389Z,10.90
2019-02-19T12:30:21.185Z,10.90
2019-02-19T12:32:50.526Z,10.90
2019-02-19T12:35:19.856Z,11.00
2019-02-19T12:37:49.212Z,11.10
2019-02-19T12:40:18.551Z,11.10
2019-02-19T12:42:47.890Z,11.00
2019-02-19T12:45:17.311Z,11.10
2019-02-19T12:47:46.642Z,11.10
2019-02-19T12:50:22.018Z,11.10
2019-02-19T12:52:51.364Z,11.30
2019-02-19T12:55:20.710Z,11.30
2019-02-19T12:57:50.050Z,11.30
2019-02-19T13:00:20.573Z,11.30
2019-02-19T13:02:49.914Z,11.30
2019-02-19T13:05:19.257Z,11.20
2019-02-19T13:07:48.598Z,11.30
2019-02-19T13:10:17.943Z,11.30
2019-02-19T13:12:49.069Z,11.40
2019-02-19T13:15:22.695Z,11.40
2019-02-19T13:17:52.038Z,11.40
2019-02-19T13:20:21.379Z,11.30
2019-02-19T13:22:50.721Z,11.30
2019-02-19T13:25:20.058Z,11.30
2019-02-19T13:27:49.403Z,11.30
2019-02-19T13:30:21.153Z,11.20
2019-02-19T13:32:50.506Z,11.30
2019-02-19T13:35:19.859Z,11.30
2019-02-19T13:37:49.199Z,11.30
2019-02-19T13:40:20.257Z,11.30
2019-02-19T13:42:49.599Z,11.30
2019-02-19T13:45:18.946Z,11.30
2019-02-19T13:47:48.314Z,11.30
2019-02-19T13:50:26.489Z,11.30
2019-02-19T13:53:00.425Z,11.20
2019-02-19T13:55:31.411Z,11.20
2019-02-19T13:58:00.757Z,11.20
2019-02-19T14:00:31.730Z,11.10
2019-02-19T14:03:01.089Z,11.20
2019-02-19T14:05:30.430Z,11.20
2019-02-19T14:07:59.769Z,11.30
2019-02-19T14:10:29.125Z,11.40
2019-02-19T14:12:58.455Z,11.40
2019-02-19T14:15:32.409Z,11.40
2019-02-19T14:18:02.624Z,11.30
2019-02-19T14:20:33.604Z,11.40
2019-02-19T14:23:04.586Z,11.30
2019-02-19T14:25:51.700Z,11.40
2019-02-19T14:28:22.679Z,11.30
2019-02-19T14:30:56.563Z,11.20
2019-02-19T14:33:27.536Z,11.20
2019-02-19T14:36:13.710Z,11.10
2019-02-19T14:38:50.651Z,11.10
2019-02-19T14:41:21.676Z,11.00
2019-02-19T14:44:09.063Z,10.90
2019-02-19T14:46:42.781Z,11.00
2019-02-19T14:49:13.768Z,11.10
2019-02-19T14:51:53.734Z,11.30
2019-02-19T14:54:27.737Z,11.50
2019-02-19T14:57:01.428Z,11.60
2019-02-19T14:59:48.592Z,11.80
2019-02-19T15:02:22.049Z,11.90
2019-02-19T15:04:59.105Z,12.00
2019-02-19T15:07:46.675Z,12.00
2019-02-19T15:10:35.734Z,12.00
2019-02-19T15:13:12.685Z,11.90
2019-02-19T15:15:59.027Z,11.90
2019-02-19T15:18:35.973Z,11.90
2019-02-19T15:21:12.729Z,11.90
2019-02-19T15:23:46.125Z,11.80
2019-02-19T15:26:35.506Z,11.80
2019-02-19T15:29:06.515Z,11.70
2019-02-19T15:31:46.779Z,11.50
2019-02-19T15:34:26.775Z,11.50
2019-02-19T15:36:57.765Z,11.30
2019-02-19T15:39:45.010Z,11.20
2019-02-19T15:42:18.698Z,11.10
2019-02-19T15:44:49.713Z,11.10
2019-02-19T15:47:38.753Z,11.00
2019-02-19T15:50:21.704Z,10.90
2019-02-19T15:52:58.448Z,10.80
2019-02-19T15:55:32.470Z,10.80
2019-02-19T15:58:04.849Z,10.80
2019-02-19T16:00:38.966Z,10.70
2019-02-19T16:03:09.951Z,10.70
2019-02-19T16:05:40.936Z,10.60
2019-02-19T16:08:17.512Z,10.50
2019-02-19T16:10:48.501Z,10.40
2019-02-19T16:13:19.474Z,10.40
2019-02-19T16:15:55.940Z,10.30
2019-02-19T16:18:29.579Z,10.30
2019-02-19T16:21:00.595Z,10.20
2019-02-19T16:23:46.570Z,10.20
2019-02-19T16:26:35.432Z,10.00
2019-02-19T16:29:09.129Z,10.00
2019-02-19T16:31:40.109Z,9.90
2019-02-19T16:34:26.487Z,9.80
2019-02-19T16:36:57.471Z,9.80
2019-02-19T16:39:34.446Z,9.70
2019-02-19T16:42:20.378Z,9.60
2019-02-19T16:44:54.522Z,9.60
2019-02-19T16:47:31.487Z,9.50
2019-02-19T16:50:07.749Z,9.50
2019-02-19T16:52:35.175Z,9.40
2019-02-19T16:55:10.789Z,9.30
2019-02-19T16:57:53.927Z,9.30
2019-02-19T17:00:30.770Z,9.20
2019-02-19T17:03:01.754Z,9.20
2019-02-19T17:05:42.463Z,9.10
2019-02-19T17:08:13.715Z,9.10
2019-02-19T17:10:47.635Z,9.00
2019-02-19T17:13:34.806Z,8.90
2019-02-19T17:16:08.722Z,8.90
2019-02-19T17:18:55.741Z,8.80
2019-02-19T17:21:32.455Z,8.70
2019-02-19T17:24:04.085Z,8.60
2019-02-19T17:26:35.079Z,8.60
2019-02-19T17:29:06.061Z,8.50
2019-02-19T17:31:39.802Z,8.50
2019-02-19T17:34:10.819Z,8.50
2019-02-19T17:36:58.407Z,8.40
2019-02-19T17:39:38.387Z,8.40
2019-02-19T17:42:09.371Z,8.40
2019-02-19T17:44:40.363Z,8.40
2019-02-19T17:47:20.153Z,8.30
2019-02-19T17:49:51.140Z,8.30
2019-02-19T17:52:22.110Z,8.30
2019-02-19T17:55:09.739Z,8.30
2019-02-19T17:57:40.730Z,8.20
2019-02-19T18:00:31.878Z,8.20
2019-02-19T18:03:19.381Z,8.20
2019-02-19T18:05:56.484Z,8.20
2019-02-19T18:08:30.694Z,8.20
2019-02-19T18:11:04.634Z,8.10
2019-02-19T18:13:45.801Z,8.10
2019-02-19T18:16:19.846Z,8.10
2019-02-19T18:18:52.652Z,8.10
2019-02-19T18:21:21.989Z,8.10
2019-02-19T18:23:51.331Z,8.10
2019-02-19T18:26:20.672Z,8.10
2019-02-19T18:28:50.026Z,8.00
2019-02-19T18:31:19.367Z,8.00
2019-02-19T18:33:48.704Z,8.00
2019-02-19T18:36:18.037Z,8.00
2019-02-19T18:38:47.442Z,8.00
2019-02-19T18:41:16.751Z,8.00
2019-02-19T18:43:46.088Z,8.00
2019-02-19T18:46:15.432Z,8.00
2019-02-19T18:48:44.776Z,7.90
2019-02-19T18:51:14.197Z,8.00
2019-02-19T18:53:43.546Z,7.90
2019-02-19T18:56:12.885Z,7.90
2019-02-19T18:58:42.223Z,7.90
2019-02-19T19:01:11.625Z,7.90
2019-02-19T19:03:41.047Z,7.90
2019-02-19T19:06:10.956Z,7.90
2019-02-19T19:08:41.615Z,7.90
2019-02-19T19:11:10.968Z,7.80
2019-02-19T19:13:40.319Z,7.80
2019-02-19T19:16:09.671Z,7.80
2019-02-19T19:18:39.011Z,7.70
2019-02-19T19:21:08.436Z,7.70
2019-02-19T19:23:37.757Z,7.70
2019-02-19T19:26:07.103Z,7.70
2019-02-19T19:28:36.436Z,7.70
2019-02-19T19:31:05.773Z,7.60
2019-02-19T19:33:35.121Z,7.60
2019-02-19T19:36:04.468Z,7.60
2019-02-19T19:38:33.870Z,7.50
2019-02-19T19:41:03.212Z,7.50
2019-02-19T19:43:32.545Z,7.50
2019-02-19T19:46:01.882Z,7.50
2019-02-19T19:48:31.223Z,7.50
2019-02-19T19:51:00.605Z,7.50
2019-02-19T19:53:29.963Z,7.40
2019-02-19T19:55:59.297Z,7.40
2019-02-19T19:58:28.642Z,7.40
2019-02-19T20:00:58.007Z,7.40
2019-02-19T20:03:27.343Z,7.30
2019-02-19T20:05:56.680Z,7.30
2019-02-19T20:08:27.586Z,7.30
2019-02-19T20:10:56.932Z,7.40
2019-02-19T20:13:26.271Z,7.40
2019-02-19T20:15:55.613Z,7.30
2019-02-19T20:18:24.959Z,7.40
2019-02-19T20:20:54.300Z,7.40
2019-02-19T20:23:23.638Z,7.40
2019-02-19T20:25:52.978Z,7.30
2019-02-19T20:28:22.313Z,7.30
2019-02-19T20:30:51.658Z,7.30
2019-02-19T20:33:20.996Z,7.40
2019-02-19T20:35:50.392Z,7.30
2019-02-19T20:38:20.061Z,7.30
2019-02-19T20:40:49.681Z,7.30
2019-02-19T20:43:19.480Z,7.30
2019-02-19T20:45:48.819Z,7.30
2019-02-19T20:48:18.164Z,7.30
2019-02-19T20:50:47.496Z,7.30
2019-02-19T20:53:16.860Z,7.30
2019-02-19T20:55:46.174Z,7.30
2019-02-19T20:58:17.050Z,7.20
2019-02-19T21:00:46.392Z,7.30
2019-02-19T21:03:15.733Z,7.20
2019-02-19T21:05:45.063Z,7.20
2019-02-19T21:08:14.410Z,7.20
2019-02-19T21:10:43.750Z,7.20
2019-02-19T21:13:14.512Z,7.30
2019-02-19T21:15:43.854Z,7.20
2019-02-19T21:18:13.771Z,7.20
2019-02-19T21:20:43.184Z,7.20
2019-02-19T21:23:12.509Z,7.20
2019-02-19T21:25:41.853Z,7.20
2019-02-19T21:28:11.194Z,7.20
2019-02-19T21:30:41.446Z,7.20
2019-02-19T21:33:10.806Z,7.20
2019-02-19T21:35:40.160Z,7.20
2019-02-19T21:38:09.516Z,7.20
2019-02-19T21:40:38.867Z,7.20
2019-02-19T21:43:08.210Z,7.20
2019-02-19T21:45:37.554Z,7.20
2019-02-19T21:48:06.904Z,7.20
2019-02-19T21:50:36.323Z,7.20
2019-02-19T21:53:05.727Z,7.20
2019-02-19T21:55:35.058Z,7.20
2019-02-19T21:58:04.393Z,7.20
2019-02-19T22:00:33.735Z,7.20
2019-02-19T22:03:03.070Z,7.20
2019-02-19T22:05:32.405Z,7.20
2019-02-19T22:08:01.742Z,7.20
2019-02-19T22:10:31.098Z,7.20
2019-02-19T22:13:00.443Z,7.20
2019-02-19T22:15:29.772Z,7.20
2019-02-19T22:17:59.111Z,7.20
2019-02-19T22:20:45.141Z,7.20
2019-02-19T22:23:14.483Z,7.20
2019-02-19T22:25:44.057Z,7.20
2019-02-19T22:28:13.400Z,7.30
2019-02-19T22:30:42.734Z,7.30
2019-02-19T22:33:12.102Z,7.30
2019-02-19T22:35:41.444Z,7.30
2019-02-19T22:38:10.789Z,7.30
2019-02-19T22:40:40.126Z,7.30
2019-02-19T22:43:09.518Z,7.30
2019-02-19T22:45:38.857Z,7.30
2019-02-19T22:48:08.211Z,7.30
2019-02-19T22:50:37.548Z,7.30
2019-02-19T22:53:08.536Z,7.30
2019-02-19T22:55:51.778Z,7.30
2019-02-19T22:58:21.146Z,7.20
2019-02-19T23:00:57.366Z,7.20
2019-02-19T23:03:29.594Z,7.20
2019-02-19T23:05:59.017Z,7.20
2019-02-19T23:08:29.743Z,7.20
2019-02-19T23:10:59.096Z,7.20
2019-02-19T23:13:28.436Z,7.20
2019-02-19T23:15:57.773Z,7.20
2019-02-19T23:18:27.112Z,7.30
2019-02-19T23:20:56.447Z,7.30
2019-02-19T23:23:25.781Z,7.30
2019-02-19T23:25:55.119Z,7.30
2019-02-19T23:28:24.481Z,7.30
2019-02-19T23:30:53.825Z,7.30
2019-02-19T23:33:23.155Z,7.30
2019-02-19T23:35:56.832Z,7.30
2019-02-19T23:38:26.174Z,7.30
2019-02-19T23:40:55.513Z,7.30
2019-02-19T23:43:24.845Z,7.30
2019-02-19T23:45:54.189Z,7.30
2019-02-19T23:48:23.524Z,7.30
2019-02-19T23:50:52.861Z,7.30
2019-02-19T23:53:22.214Z,7.30
2019-02-19T23:55:51.553Z,7.30
2019-02-19T23:58:22.271Z,7.30
